Quantico MCAF, Turner field Quantico US
ICAO: KNYG
IATA: NYG
Category: Medium
Scheduled Services: No

Elevation: 10 ft
TransAlt. 18000 ft.

Airport Communications:
POTOMAC APP/DEP:124.65
ARRIVAL:127.05
ATIS:26.315
GND:121.75
PMSV METRO/BASE OPS:35.53
TWR:118.6

KNYG Zoom In..

If you have problems with the map follow the link
https://www.worldairports.se/pages/airport.php?
ICAO=KNYG

Runways:

(A) RW 02 length 4250 ft width 200 ft
---- / hdg 24

(B) RW 20 length 4250 ft width 200 ft
---- / hdg 204

Location; KNYG
Day. 12 / Time. 09.56 Zulu
* Altimeter: 30.68
* Temperature: 00° c. 32°f.
* Wind from: 000° Speed 00 kn.
Dewpoint: -08° c.
Visibility: 10 Statute Miles.
Clouds: Clear (automated report).

KNYG 120956Z AUTO 00000KT 10SM CLR 00/M08 A3068 RMK AO2 SLP391 T00001078


Wind - Calm.

 
 
jpsmedia worldairports.se 2019   terms of use